Accueil
METAR-TAF:

METAR-TAF

Aéroports :

Aéroport de Valence

Valence, Espagne

latitude: 39-30N, longitude: 000-28W, altitude: 69 m

Observation

Le bulletin a été fait il y a 37 minutes, à 19:00 UTC
Vent 3 kt de est/nord-est, variant entre nord et est
Température 14°C
Humidité 88%
Pression 1025 hPa
Visibilité: 9000 m

METAR: LEVC 161900Z 06003KT 010V090 9000 NSC 14/12 Q1025 NOSIG

Heure: 20:37 (19:37 UTC)

Prévision

Le bulletin a été fait il y a 2 heures et 37 minutes, à 17:00 UTC
Prévision valable du 16 à 18 UTC au 17 à 18 UTC
Vent 3 kt de direction variable
Visibilité 10 km ou plus
Quelques nuages à une hauteur de 2000 ft
Probabilité 40% :
Temporairement
du 16 à 20 UTC au 17 à 08 UTC
Visibilité: 2000 m
brume

TAF: LEVC 161700Z 1618/1718 VRB03KT 9999 FEW020 TX26/1713Z TN08/1706Z PROB40 TEMPO 1620/1708 2000 BR

Observations et prévisions météorologiques de plus de 4000 aéroports (messages METAR et TAF).

Les stations disponibles sont représentées par des disques jaunes et rouges sur la carte.

Passer la souris dessus pour voir le nom de la station.

Cliquer dessus pour voir les observations et prévisions météorologiques.

Pour changer de carte: cliquez sur les boutons verts avec une croix noire pour zoomer, sur le bouton vert avec un tiret pour effectuer un zoom arrière, ou sur les flèches vertes pour les cartes adjacentes.


METAR-TAF: